Time;durP1;ratioP1;P1;durP2;ratioP2;P2;SDS_P1;SDS_P2;PMS_P1;PMS_P2;Temp;Humidity;BMP_temperature;BMP_pressure;BME280_temperature;BME280_humidity;BME280_pressure;Samples;Min_cycle;Max_cycle;Signal;HPM_P1;HPM_P2
2023/11/04 00:01:58;;;;;;;;;;;;;;;20.73;45.28;99493.27;102762;1291;73576;-82
2023/11/04 00:04:24;;;;;;;;;;;;;;;20.73;45.27;99501.89;102747;1291;73558;-83
2023/11/04 00:06:49;;;;;;;;;;;;;;;20.73;45.28;99503.67;103076;1291;60558;-83
2023/11/04 00:09:15;;;;;;;;;;;;;;;20.73;45.29;99503.31;102854;1291;61733;-82
2023/11/04 00:11:42;;;;;;;;;;;;;;;20.73;45.30;99495.99;102719;1291;60589;-84
2023/11/04 00:14:08;;;;;;;;;;;;;;;20.73;45.19;99495.29;102746;1291;60657;-82
2023/11/04 00:16:36;;;;;;;;;;;;;;;20.73;45.33;99488.66;102676;1297;60627;-83
2023/11/04 00:19:02;;;;;;;;;;;;;;;20.72;45.23;99484.79;102752;1290;61605;-81
2023/11/04 00:21:28;;;;;;;;;;;;;;;20.72;45.28;99472.25;102740;1293;60675;-83
2023/11/04 00:23:53;;;;;;;;;;;;;;;20.72;45.29;99473.51;103045;1291;61186;-83
2023/11/04 00:26:19;;;;;;;;;;;;;;;20.72;45.31;99477.46;103048;1291;60583;-84
2023/11/04 00:28:45;;;;;;;;;;;;;;;20.72;45.27;99484.79;102803;1291;60574;-83
2023/11/04 00:31:11;;;;;;;;;;;;;;;20.72;45.29;99487.67;102759;1291;60588;-84
2023/11/04 00:33:41;;;;;;;;;;;;;;;20.72;45.34;99482.66;102746;1291;72327;-83
2023/11/04 00:36:08;;;;;;;;;;;;;;;20.72;45.38;99487.27;102725;1293;61896;-82
2023/11/04 00:38:34;;;;;;;;;;;;;;;20.72;45.36;99484.65;102756;1291;60671;-84
2023/11/04 00:40:59;;;;;;;;;;;;;;;20.72;45.32;99488.59;103065;1289;60591;-83
2023/11/04 00:43:25;;;;;;;;;;;;;;;20.72;45.39;99500.88;102775;1293;60667;-82
2023/11/04 00:45:50;;;;;;;;;;;;;;;20.72;45.28;99503.41;102706;1291;61335;-83
2023/11/04 00:48:16;;;;;;;;;;;;;;;20.71;45.41;99496.47;102814;1291;60546;-82
2023/11/04 00:50:41;;;;;;;;;;;;;;;20.72;45.34;99499.30;102754;1291;60526;-82
2023/11/04 00:53:07;;;;;;;;;;;;;;;20.72;45.27;99500.73;103057;1290;61762;-82
2023/11/04 00:55:34;;;;;;;;;;;;;;;20.71;45.37;99490.92;102824;1290;60876;-82
2023/11/04 00:57:59;;;;;;;;;;;;;;;20.71;45.37;99482.16;102739;1291;60584;-84
2023/11/04 01:00:25;;;;;;;;;;;;;;;20.71;45.34;99483.59;103036;1293;61866;-82
2023/11/04 01:02:54;;;;;;;;;;;;;;;20.72;45.31;99483.03;103026;1291;60474;-84
2023/11/04 01:05:22;;;;;;;;;;;;;;;20.71;45.54;99482.92;102899;1290;60964;-82
2023/11/04 01:07:48;;;;;;;;;;;;;;;20.71;45.44;99480.58;103069;1293;74416;-83
2023/11/04 01:10:14;;;;;;;;;;;;;;;20.71;45.47;99483.60;102763;1291;60992;-83
2023/11/04 01:12:40;;;;;;;;;;;;;;;20.71;45.43;99478.96;102803;1291;60629;-81
2023/11/04 01:15:06;;;;;;;;;;;;;;;20.71;45.45;99475.55;102776;1291;61300;-82
2023/11/04 01:17:31;;;;;;;;;;;;;;;20.71;45.48;99473.09;102762;1291;60579;-83
2023/11/04 01:19:58;;;;;;;;;;;;;;;20.71;45.46;99477.02;102740;1293;61841;-81
2023/11/04 01:22:24;;;;;;;;;;;;;;;20.71;45.47;99469.90;102710;1291;60474;-82
2023/11/04 01:24:50;;;;;;;;;;;;;;;20.71;45.46;99461.30;103071;1291;61871;-82
2023/11/04 01:27:15;;;;;;;;;;;;;;;20.71;45.53;99463.10;102774;1293;60597;-82
2023/11/04 01:29:41;;;;;;;;;;;;;;;20.70;45.45;99460.45;103034;1294;60612;-84
2023/11/04 01:32:06;;;;;;;;;;;;;;;20.71;45.54;99457.90;102743;1291;60695;-82
2023/11/04 01:34:34;;;;;;;;;;;;;;;20.71;45.53;99452.17;102831;1293;60736;-84
2023/11/04 01:37:00;;;;;;;;;;;;;;;20.70;45.58;99442.21;103007;1291;60481;-83
2023/11/04 01:39:25;;;;;;;;;;;;;;;20.70;45.55;99433.80;102749;1293;60668;-82
2023/11/04 01:41:52;;;;;;;;;;;;;;;20.71;45.46;99432.13;102768;1293;61747;-84
2023/11/04 01:44:17;;;;;;;;;;;;;;;20.70;45.56;99432.39;103039;1291;60655;-83
2023/11/04 01:46:46;;;;;;;;;;;;;;;20.70;45.52;99430.05;102705;1294;60860;-83
2023/11/04 01:49:11;;;;;;;;;;;;;;;20.70;45.52;99426.48;102993;1295;72481;-84
2023/11/04 01:51:38;;;;;;;;;;;;;;;20.70;45.45;99424.72;103007;1295;60916;-82
2023/11/04 01:54:03;;;;;;;;;;;;;;;20.71;45.58;99432.19;103021;1289;61611;-83
2023/11/04 01:56:38;;;;;;;;;;;;;;;20.70;45.51;99430.95;103032;1295;60648;-83
2023/11/04 01:59:04;;;;;;;;;;;;;;;20.70;45.54;99437.41;102989;1294;72475;-83
2023/11/04 02:01:30;;;;;;;;;;;;;;;20.70;45.55;99437.21;102986;1295;61708;-82
2023/11/04 02:03:56;;;;;;;;;;;;;;;20.70;45.50;99437.42;103028;1290;61094;-82
2023/11/04 02:06:22;;;;;;;;;;;;;;;20.70;45.60;99438.85;103013;1295;60465;-83
2023/11/04 02:08:48;;;;;;;;;;;;;;;20.70;45.53;99432.93;103123;1295;61675;-82
2023/11/04 02:11:15;;;;;;;;;;;;;;;20.70;45.62;99418.11;102789;1289;60677;-84
2023/11/04 02:13:41;;;;;;;;;;;;;;;20.70;45.55;99416.51;102990;1289;61100;-84
2023/11/04 02:16:07;;;;;;;;;;;;;;;20.70;45.58;99424.40;103004;1295;60590;-82
2023/11/04 02:18:33;;;;;;;;;;;;;;;20.70;45.63;99429.17;102961;1295;61756;-84
2023/11/04 02:20:59;;;;;;;;;;;;;;;20.70;45.53;99432.95;102302;1295;616344;-81
2023/11/04 02:23:25;;;;;;;;;;;;;;;20.70;45.62;99415.62;102714;1294;73683;-85
2023/11/04 02:25:59;;;;;;;;;;;;;;;20.70;45.67;99412.95;102752;1295;60604;-82
2023/11/04 02:28:25;;;;;;;;;;;;;;;20.70;45.54;99418.86;102781;1291;60483;-83
2023/11/04 02:30:50;;;;;;;;;;;;;;;20.70;45.77;99428.10;102744;1293;60651;-83
2023/11/04 02:33:16;;;;;;;;;;;;;;;20.70;45.59;99427.23;102711;1292;61907;-82
2023/11/04 02:36:08;;;;;;;;;;;;;;;20.70;45.58;99425.79;102666;1289;60595;-83
2023/11/04 02:38:34;;;;;;;;;;;;;;;20.71;45.60;99414.48;102274;1297;60583;-82
2023/11/04 02:40:59;;;;;;;;;;;;;;;20.70;45.64;99402.02;102300;1299;60565;-82
2023/11/04 02:43:25;;;;;;;;;;;;;;;20.70;45.66;99390.39;102504;1295;61957;-82
2023/11/04 02:45:50;;;;;;;;;;;;;;;20.70;45.66;99381.80;102490;1294;60671;-81
2023/11/04 02:48:16;;;;;;;;;;;;;;;20.70;45.73;99387.73;102537;1296;61776;-81
2023/11/04 02:50:42;;;;;;;;;;;;;;;20.70;45.61;99390.96;102505;1299;61159;-84
2023/11/04 02:53:08;;;;;;;;;;;;;;;20.70;45.76;99387.20;102321;1294;60565;-82
2023/11/04 02:55:34;;;;;;;;;;;;;;;20.70;45.82;99386.70;102509;1298;61871;-84
2023/11/04 02:58:00;;;;;;;;;;;;;;;20.70;45.76;99374.67;102507;1294;61811;-83
2023/11/04 03:00:26;;;;;;;;;;;;;;;20.70;45.66;99368.26;102486;1294;60594;-83
2023/11/04 03:02:51;;;;;;;;;;;;;;;20.70;45.79;99368.64;102307;1300;62047;-82
2023/11/04 03:05:43;;;;;;;;;;;;;;;20.70;45.72;99382.75;102322;1300;62369;-82
2023/11/04 03:08:08;;;;;;;;;;;;;;;20.70;45.76;99384.36;102154;1301;74398;-83
2023/11/04 03:10:34;;;;;;;;;;;;;;;20.69;45.89;99373.48;102118;1301;60604;-84
2023/11/04 03:13:00;;;;;;;;;;;;;;;20.70;45.81;99359.34;102170;1302;60698;-83
2023/11/04 03:15:27;;;;;;;;;;;;;;;20.70;45.83;99354.11;102245;1295;60546;-82
2023/11/04 03:17:54;;;;;;;;;;;;;;;20.69;45.73;99351.86;102716;1295;61812;-83
2023/11/04 03:20:20;;;;;;;;;;;;;;;20.70;45.71;99354.48;102561;1295;60616;-82
2023/11/04 03:22:46;;;;;;;;;;;;;;;20.70;45.73;99365.22;102509;1295;60507;-82
2023/11/04 03:25:12;;;;;;;;;;;;;;;20.70;45.84;99363.27;102511;1295;60878;-82
2023/11/04 03:27:39;;;;;;;;;;;;;;;20.69;45.85;99368.48;102537;1299;60624;-82
2023/11/04 03:30:05;;;;;;;;;;;;;;;20.69;45.78;99370.97;102506;1299;60713;-83
2023/11/04 03:32:30;;;;;;;;;;;;;;;20.69;45.81;99367.77;102501;1300;60549;-84
2023/11/04 03:34:59;;;;;;;;;;;;;;;20.69;45.82;99366.00;102588;1300;60613;-82
2023/11/04 03:37:24;;;;;;;;;;;;;;;20.69;45.80;99359.93;102478;1300;72701;-83
2023/11/04 03:39:52;;;;;;;;;;;;;;;20.70;45.86;99356.84;102490;1301;61967;-84
2023/11/04 03:42:18;;;;;;;;;;;;;;;20.69;45.73;99351.15;102519;1299;60894;-83
2023/11/04 03:44:43;;;;;;;;;;;;;;;20.69;45.87;99357.05;102323;1292;60594;-81
2023/11/04 03:47:18;;;;;;;;;;;;;;;20.69;45.86;99361.17;102768;1289;72630;-82
2023/11/04 03:49:44;;;;;;;;;;;;;;;20.69;45.96;99356.35;103030;1290;60588;-83
2023/11/04 03:52:10;;;;;;;;;;;;;;;20.70;45.79;99354.35;103055;1292;61140;-81
2023/11/04 03:54:36;;;;;;;;;;;;;;;20.69;45.89;99352.95;102736;1292;60748;-82
2023/11/04 03:57:04;;;;;;;;;;;;;;;20.69;45.92;99349.41;102741;1293;61031;-83
2023/11/04 03:59:30;;;;;;;;;;;;;;;20.69;45.93;99348.50;102734;1293;60615;-83
2023/11/04 04:01:56;;;;;;;;;;;;;;;20.69;45.84;99337.94;102753;1289;60637;-82
2023/11/04 04:04:24;;;;;;;;;;;;;;;20.69;45.92;99328.98;102821;1289;60595;-81
2023/11/04 04:06:52;;;;;;;;;;;;;;;20.69;45.84;99324.70;102757;1292;72303;-82
2023/11/04 04:09:17;;;;;;;;;;;;;;;20.69;46.13;99327.24;102753;1292;74599;-81
2023/11/04 04:11:43;;;;;;;;;;;;;;;20.69;45.95;99325.10;102889;1293;61071;-81
2023/11/04 04:14:09;;;;;;;;;;;;;;;20.68;45.95;99325.51;102977;1294;60500;-83
2023/11/04 04:16:59;;;;;;;;;;;;;;;20.68;45.99;99327.43;103043;1294;61701;-82
2023/11/04 04:19:24;;;;;;;;;;;;;;;20.69;45.93;99329.92;102261;1295;74693;-84
2023/11/04 04:21:51;;;;;;;;;;;;;;;20.69;45.89;99328.13;102595;1300;61561;-83
2023/11/04 04:24:17;;;;;;;;;;;;;;;20.69;45.94;99324.39;102480;1294;60602;-82
2023/11/04 04:26:42;;;;;;;;;;;;;;;20.69;45.97;99336.00;102456;1300;60644;-81
2023/11/04 04:29:10;;;;;;;;;;;;;;;20.68;46.05;99339.06;102508;1300;60630;-83
2023/11/04 04:31:36;;;;;;;;;;;;;;;20.69;46.04;99351.90;102512;1300;61160;-82
2023/11/04 04:34:01;;;;;;;;;;;;;;;20.68;45.91;99359.61;102588;1300;60586;-83
2023/11/04 04:36:27;;;;;;;;;;;;;;;20.69;45.93;99360.69;102465;1298;61698;-83
2023/11/04 04:38:54;;;;;;;;;;;;;;;20.69;46.06;99356.00;102501;1294;60735;-82
2023/11/04 04:41:20;;;;;;;;;;;;;;;20.69;46.03;99357.81;102490;1294;60733;-81
2023/11/04 04:43:45;;;;;;;;;;;;;;;20.69;45.99;99365.32;102312;1299;61218;-83
2023/11/04 04:46:11;;;;;;;;;;;;;;;20.68;45.96;99372.84;102492;1299;61552;-84
2023/11/04 04:48:37;;;;;;;;;;;;;;;20.68;45.95;99384.08;102553;1300;60606;-83
2023/11/04 04:51:03;;;;;;;;;;;;;;;20.68;46.08;99392.73;102308;1299;61772;-81
2023/11/04 04:53:29;;;;;;;;;;;;;;;20.68;46.04;99396.46;102189;1303;60613;-82
2023/11/04 04:55:55;;;;;;;;;;;;;;;20.68;46.04;99388.75;102168;1297;61982;-82
2023/11/04 04:58:24;;;;;;;;;;;;;;;20.68;46.08;99380.92;102341;1301;60733;-82
2023/11/04 05:00:49;;;;;;;;;;;;;;;20.68;46.01;99389.52;102333;1302;60619;-82
2023/11/04 05:03:15;;;;;;;;;;;;;;;20.68;46.03;99396.46;102575;1299;61000;-82
2023/11/04 05:05:40;;;;;;;;;;;;;;;20.67;45.99;99405.63;102579;1300;60600;-82
2023/11/04 05:08:06;;;;;;;;;;;;;;;20.68;46.10;99419.20;102743;1298;60610;-81
2023/11/04 05:10:32;;;;;;;;;;;;;;;20.68;46.03;99420.98;102564;1296;73921;-84
2023/11/04 05:12:57;;;;;;;;;;;;;;;20.68;46.25;99410.79;102496;1294;62252;-82
2023/11/04 05:15:23;;;;;;;;;;;;;;;20.67;46.12;99410.45;102566;1297;60957;-83
2023/11/04 05:17:49;;;;;;;;;;;;;;;20.68;46.10;99407.21;102486;1293;60796;-81
2023/11/04 05:20:15;;;;;;;;;;;;;;;20.67;45.99;99396.54;102613;1297;60675;-82
2023/11/04 05:22:40;;;;;;;;;;;;;;;20.68;46.03;99392.23;102605;1299;72346;-81
2023/11/04 05:25:06;;;;;;;;;;;;;;;20.67;46.19;99399.93;102566;1296;60953;-82
2023/11/04 05:27:31;;;;;;;;;;;;;;;20.67;46.08;99405.10;102612;1299;60685;-83
2023/11/04 05:30:06;;;;;;;;;;;;;;;20.67;46.01;99401.55;102532;1299;61827;-82
2023/11/04 05:32:32;;;;;;;;;;;;;;;20.67;46.13;99395.63;102490;1297;72486;-83
2023/11/04 05:34:57;;;;;;;;;;;;;;;20.67;46.20;99392.64;102491;1299;60692;-82
2023/11/04 05:37:23;;;;;;;;;;;;;;;20.67;46.23;99382.78;102617;1289;60577;-83
2023/11/04 05:39:49;;;;;;;;;;;;;;;20.67;46.20;99378.70;103038;1289;60628;-82
2023/11/04 05:42:14;;;;;;;;;;;;;;;20.67;46.19;99370.30;102737;1293;61779;-84
2023/11/04 05:44:40;;;;;;;;;;;;;;;20.67;46.13;99358.85;102814;1304;60597;-84
2023/11/04 05:47:05;;;;;;;;;;;;;;;20.67;46.08;99359.90;103066;1293;60584;-82
2023/11/04 05:49:31;;;;;;;;;;;;;;;20.67;46.00;99354.36;103028;1291;61150;-84
2023/11/04 05:51:56;;;;;;;;;;;;;;;20.67;46.12;99347.02;102773;1294;60706;-82
2023/11/04 05:54:22;;;;;;;;;;;;;;;20.67;46.19;99333.52;103022;1300;62174;-83
2023/11/04 05:56:48;;;;;;;;;;;;;;;20.67;46.16;99331.53;103042;1294;60534;-82
2023/11/04 05:59:13;;;;;;;;;;;;;;;20.66;46.10;99338.51;102742;1291;74731;-84
2023/11/04 06:01:39;;;;;;;;;;;;;;;20.67;46.11;99335.98;102726;1294;61225;-82
2023/11/04 06:04:04;;;;;;;;;;;;;;;20.67;46.20;99333.09;102763;1291;60542;-84
2023/11/04 06:06:30;;;;;;;;;;;;;;;20.67;46.17;99332.08;102744;1295;61924;-81
2023/11/04 06:08:56;;;;;;;;;;;;;;;20.67;46.06;99334.02;102786;1293;60927;-82
2023/11/04 06:11:22;;;;;;;;;;;;;;;20.67;46.18;99336.48;102795;1293;61848;-81
2023/11/04 06:13:47;;;;;;;;;;;;;;;20.67;46.20;99335.23;102743;1290;61206;-82
2023/11/04 06:16:13;;;;;;;;;;;;;;;20.67;46.16;99326.30;102766;1294;60571;-83
2023/11/04 06:18:39;;;;;;;;;;;;;;;20.67;46.22;99319.69;102741;1294;60533;-82
2023/11/04 06:21:05;;;;;;;;;;;;;;;20.67;46.18;99316.31;102983;1294;60529;-82
2023/11/04 06:23:31;;;;;;;;;;;;;;;20.67;46.22;99317.39;103000;1293;61942;-83
2023/11/04 06:25:57;;;;;;;;;;;;;;;20.67;46.20;99313.65;102750;1301;60523;-82
2023/11/04 06:28:22;;;;;;;;;;;;;;;20.67;46.19;99312.51;102747;1294;61078;-83
2023/11/04 06:30:48;;;;;;;;;;;;;;;20.67;46.24;99313.45;102752;1293;60604;-82
2023/11/04 06:33:20;;;;;;;;;;;;;;;20.67;46.20;99292.16;102698;1294;62276;-81
2023/11/04 06:35:46;;;;;;;;;;;;;;;20.67;46.15;99295.05;102977;1289;60539;-82
2023/11/04 06:38:12;;;;;;;;;;;;;;;20.67;46.22;99301.45;102985;1294;60947;-82
2023/11/04 06:40:39;;;;;;;;;;;;;;;20.67;46.20;99304.29;102938;1303;60601;-81
2023/11/04 06:43:05;;;;;;;;;;;;;;;20.67;46.34;99290.02;102752;1290;73353;-84
2023/11/04 06:45:30;;;;;;;;;;;;;;;20.68;46.20;99280.48;103004;1294;60590;-84
2023/11/04 06:48:25;;;;;;;;;;;;;;;20.67;46.28;99282.31;102764;1294;60603;-82
2023/11/04 06:50:52;;;;;;;;;;;;;;;20.67;46.25;99305.34;102488;1299;72467;-83
2023/11/04 06:53:18;;;;;;;;;;;;;;;20.68;46.24;99315.14;102530;1294;73723;-82
2023/11/04 06:55:45;;;;;;;;;;;;;;;20.68;46.29;99310.30;102497;1294;61780;-84
2023/11/04 06:58:10;;;;;;;;;;;;;;;20.68;46.24;99310.30;102469;1298;60600;-83
2023/11/04 07:00:36;;;;;;;;;;;;;;;20.68;46.37;99305.64;102321;1300;60678;-82
2023/11/04 07:03:02;;;;;;;;;;;;;;;20.69;46.30;99291.11;102487;1307;60599;-82
2023/11/04 07:05:28;;;;;;;;;;;;;;;20.69;46.28;99281.65;102317;1296;61869;-83
2023/11/04 07:07:53;;;;;;;;;;;;;;;20.69;46.22;99267.18;102558;1298;60720;-82
2023/11/04 07:10:19;;;;;;;;;;;;;;;20.68;46.20;99247.52;102527;1296;60588;-84
2023/11/04 07:12:44;;;;;;;;;;;;;;;20.69;46.20;99241.60;102256;1303;60608;-86
2023/11/04 07:15:10;;;;;;;;;;;;;;;20.69;46.26;99234.30;102496;1298;60958;-84
2023/11/04 07:17:37;;;;;;;;;;;;;;;20.68;46.32;99228.39;102296;1300;60765;-82
2023/11/04 07:20:04;;;;;;;;;;;;;;;20.68;46.26;99226.63;102534;1298;61196;-82
2023/11/04 07:22:30;;;;;;;;;;;;;;;20.68;46.25;99224.48;102541;1300;60777;-82
2023/11/04 07:24:56;;;;;;;;;;;;;;;20.68;46.31;99231.83;102351;1300;61200;-82
2023/11/04 07:27:21;;;;;;;;;;;;;;;20.68;46.33;99240.92;102598;1290;60684;-82
2023/11/04 07:29:48;;;;;;;;;;;;;;;20.68;46.41;99243.80;102766;1290;60589;-81
2023/11/04 07:32:13;;;;;;;;;;;;;;;20.68;46.24;99250.94;102689;1294;60552;-85
2023/11/04 07:34:40;;;;;;;;;;;;;;;20.69;46.25;99249.65;102742;1294;60594;-82
2023/11/04 07:37:09;;;;;;;;;;;;;;;20.69;46.18;99244.82;103047;1291;60590;-83
2023/11/04 07:39:38;;;;;;;;;;;;;;;20.69;46.24;99239.83;102962;1301;60729;-83
2023/11/04 07:42:04;;;;;;;;;;;;;;;20.68;46.37;99233.95;103011;1291;60651;-84
2023/11/04 07:44:33;;;;;;;;;;;;;;;20.69;46.30;99233.34;102693;1296;60665;-82
2023/11/04 07:47:00;;;;;;;;;;;;;;;20.69;46.34;99239.29;102962;1293;74376;-85
2023/11/04 07:49:26;;;;;;;;;;;;;;;20.69;46.25;99241.41;102718;1293;60602;-82
2023/11/04 07:51:54;;;;;;;;;;;;;;;20.69;46.34;99245.86;102644;1296;60660;-83
2023/11/04 07:54:19;;;;;;;;;;;;;;;20.69;46.32;99248.38;102746;1291;72438;-84
2023/11/04 07:56:45;;;;;;;;;;;;;;;20.69;46.27;99252.84;102729;1294;61061;-83
2023/11/04 07:59:10;;;;;;;;;;;;;;;20.69;46.25;99266.08;102705;1290;60600;-83
2023/11/04 08:01:36;;;;;;;;;;;;;;;20.69;46.40;99271.80;103009;1293;61289;-83
2023/11/04 08:04:03;;;;;;;;;;;;;;;20.70;46.43;99271.05;102764;1289;60499;-82
2023/11/04 08:06:29;;;;;;;;;;;;;;;20.69;46.35;99268.05;102747;1294;61244;-82
2023/11/04 08:08:55;;;;;;;;;;;;;;;20.69;46.36;99258.90;103034;1294;60558;-83
2023/11/04 08:11:21;;;;;;;;;;;;;;;20.69;46.28;99256.96;102798;1294;61797;-81
2023/11/04 08:13:48;;;;;;;;;;;;;;;20.70;46.26;99267.83;102777;1290;61616;-82
2023/11/04 08:16:15;;;;;;;;;;;;;;;20.70;46.38;99279.10;102751;1294;60497;-84
2023/11/04 08:18:41;;;;;;;;;;;;;;;20.69;46.26;99282.88;102954;1294;61756;-84
2023/11/04 08:21:08;;;;;;;;;;;;;;;20.69;46.43;99286.96;102786;1294;60564;-82
2023/11/04 08:23:36;;;;;;;;;;;;;;;20.69;46.29;99288.77;103014;1294;60600;-83
2023/11/04 08:26:02;;;;;;;;;;;;;;;20.69;46.26;99291.05;102753;1293;61118;-84
2023/11/04 08:28:28;;;;;;;;;;;;;;;20.70;46.35;99293.35;102752;1291;60586;-81
2023/11/04 08:30:55;;;;;;;;;;;;;;;20.70;46.35;99300.15;102778;1290;60531;-82
2023/11/04 08:33:21;;;;;;;;;;;;;;;20.69;46.23;99316.97;102649;1290;60537;-83
2023/11/04 08:35:46;;;;;;;;;;;;;;;20.70;46.34;99328.91;102693;1294;60463;-84
2023/11/04 08:38:13;;;;;;;;;;;;;;;20.70;46.42;99324.46;102740;1293;61852;-82
2023/11/04 08:40:38;;;;;;;;;;;;;;;20.70;46.31;99321.06;102757;1293;60589;-83
2023/11/04 08:43:04;;;;;;;;;;;;;;;20.70;46.31;99317.15;102745;1290;60572;-83
2023/11/04 08:45:31;;;;;;;;;;;;;;;20.69;46.32;99305.57;102679;1291;60745;-82
2023/11/04 08:47:57;;;;;;;;;;;;;;;20.69;46.25;99292.33;102714;1294;60480;-81
2023/11/04 08:50:23;;;;;;;;;;;;;;;20.69;46.28;99292.70;102760;1294;61193;-84
2023/11/04 08:52:49;;;;;;;;;;;;;;;20.69;46.48;99285.02;102760;1295;61771;-82
2023/11/04 08:55:15;;;;;;;;;;;;;;;20.69;46.34;99279.65;102737;1292;60585;-83
2023/11/04 08:57:41;;;;;;;;;;;;;;;20.69;46.60;99283.08;103032;1293;60601;-83
2023/11/04 09:00:08;;;;;;;;;;;;;;;20.69;46.44;99275.73;102709;1293;61094;-82
2023/11/04 09:02:34;;;;;;;;;;;;;;;20.69;46.46;99261.79;102724;1290;60613;-84
2023/11/04 09:05:00;;;;;;;;;;;;;;;20.69;46.40;99248.58;102735;1293;61871;-82
2023/11/04 09:07:27;;;;;;;;;;;;;;;20.69;46.46;99233.20;103006;1294;60621;-82
2023/11/04 09:09:53;;;;;;;;;;;;;;;20.69;46.58;99213.01;102742;1291;60576;-84
2023/11/04 09:12:19;;;;;;;;;;;;;;;20.69;46.35;99190.48;102808;1291;60579;-83
2023/11/04 09:14:44;;;;;;;;;;;;;;;20.69;46.52;99164.21;102745;1293;60673;-83
2023/11/04 09:17:10;;;;;;;;;;;;;;;20.69;46.39;99145.10;102618;1295;61251;-83
2023/11/04 09:19:35;;;;;;;;;;;;;;;20.69;46.40;99143.84;102722;1293;60642;-83
2023/11/04 09:22:01;;;;;;;;;;;;;;;20.69;46.44;99130.97;102980;1290;60581;-82
2023/11/04 09:24:27;;;;;;;;;;;;;;;20.68;46.44;99126.33;102749;1293;60639;-82
2023/11/04 09:26:53;;;;;;;;;;;;;;;20.69;46.47;99120.74;102711;1291;60993;-84
2023/11/04 09:29:18;;;;;;;;;;;;;;;20.69;46.46;99120.21;102796;1292;60699;-83
2023/11/04 09:31:44;;;;;;;;;;;;;;;20.69;46.46;99111.80;102751;1290;72385;-84
2023/11/04 09:34:10;;;;;;;;;;;;;;;20.69;46.40;99113.81;102753;1290;61780;-83
2023/11/04 09:36:36;;;;;;;;;;;;;;;20.69;46.52;99125.42;102746;1290;60650;-82
2023/11/04 09:39:03;;;;;;;;;;;;;;;20.69;46.48;99120.39;102704;1289;61635;-84
2023/11/04 09:41:28;;;;;;;;;;;;;;;20.69;46.38;99115.52;102649;1296;60595;-84
2023/11/04 09:43:54;;;;;;;;;;;;;;;20.69;46.45;99111.27;102742;1293;61889;-84
2023/11/04 09:46:20;;;;;;;;;;;;;;;20.69;46.43;99111.63;102713;1296;60596;-83
2023/11/04 09:48:47;;;;;;;;;;;;;;;20.69;46.48;99116.80;102750;1289;61070;-82
2023/11/04 09:51:14;;;;;;;;;;;;;;;20.70;46.44;99123.21;102728;1294;60844;-84
2023/11/04 09:53:44;;;;;;;;;;;;;;;20.69;46.53;99122.70;102973;1291;72212;-83
2023/11/04 09:56:10;;;;;;;;;;;;;;;20.69;46.47;99116.07;102715;1293;74746;-83
2023/11/04 09:58:37;;;;;;;;;;;;;;;20.69;46.52;99101.95;102738;1294;61659;-82
2023/11/04 10:01:03;;;;;;;;;;;;;;;20.69;46.36;99098.36;102755;1291;60598;-83
2023/11/04 10:03:29;;;;;;;;;;;;;;;20.69;46.39;99069.23;103016;1291;60617;-81
2023/11/04 10:05:55;;;;;;;;;;;;;;;20.69;46.45;99037.96;102716;1292;60596;-85
2023/11/04 10:08:20;;;;;;;;;;;;;;;20.69;46.39;99035.63;102760;1293;60591;-83
2023/11/04 10:10:46;;;;;;;;;;;;;;;20.69;46.60;99052.64;102747;1293;60588;-83
2023/11/04 10:13:12;;;;;;;;;;;;;;;20.69;46.51;99073.35;102757;1289;61671;-83
2023/11/04 10:15:38;;;;;;;;;;;;;;;20.70;46.48;99064.39;103174;1293;73406;-82
2023/11/04 10:18:03;;;;;;;;;;;;;;;20.70;46.46;99015.76;102977;1291;61088;-84
2023/11/04 10:20:29;;;;;;;;;;;;;;;20.70;46.58;98962.30;102971;1289;60581;-83
2023/11/04 10:22:54;;;;;;;;;;;;;;;20.69;46.61;98937.48;102736;1291;61954;-83
2023/11/04 10:25:21;;;;;;;;;;;;;;;20.70;46.51;98966.61;102700;1291;60502;-83
2023/11/04 10:27:46;;;;;;;;;;;;;;;20.69;46.54;98984.67;102774;1290;61365;-83
2023/11/04 10:30:12;;;;;;;;;;;;;;;20.69;46.48;98985.41;102776;1293;73619;-83
2023/11/04 10:32:39;;;;;;;;;;;;;;;20.70;46.54;98991.45;102720;1291;61213;-83
2023/11/04 10:35:13;;;;;;;;;;;;;;;20.70;46.53;99001.98;102774;1293;60650;-82
2023/11/04 10:37:39;;;;;;;;;;;;;;;20.70;46.46;99005.20;102721;1293;73409;-83
2023/11/04 10:40:07;;;;;;;;;;;;;;;20.70;46.57;99008.76;103038;1290;60590;-82
2023/11/04 10:42:39;;;;;;;;;;;;;;;20.70;46.50;99014.48;102780;1291;61604;-82
2023/11/04 10:45:12;;;;;;;;;;;;;;;20.70;46.54;99015.52;102751;1291;60964;-85
2023/11/04 10:47:38;;;;;;;;;;;;;;;20.70;46.52;99018.73;102932;1291;72066;-82
2023/11/04 10:50:06;;;;;;;;;;;;;;;20.70;46.58;99030.71;102984;1292;60600;-82
2023/11/04 10:52:34;;;;;;;;;;;;;;;20.71;46.53;99037.10;103002;1289;60484;-84
2023/11/04 10:55:13;;;;;;;;;;;;;;;20.70;46.54;99037.31;102729;1290;60918;-83
2023/11/04 10:58:05;;;;;;;;;;;;;;;20.71;46.61;99047.46;103028;1289;72418;-83
2023/11/04 11:00:31;;;;;;;;;;;;;;;20.70;46.73;99046.62;102439;1294;75547;-82
2023/11/04 11:02:59;;;;;;;;;;;;;;;20.70;46.63;99044.81;102560;1294;60809;-82
2023/11/04 11:05:25;;;;;;;;;;;;;;;20.71;46.65;99054.60;102531;1294;61616;-83
2023/11/04 11:07:50;;;;;;;;;;;;;;;20.70;46.52;99046.59;102537;1293;60673;-84
2023/11/04 11:10:19;;;;;;;;;;;;;;;20.71;46.71;99039.05;102525;1294;60605;-83
2023/11/04 11:13:04;;;;;;;;;;;;;;;20.70;46.67;99033.02;102527;1295;60771;-82
2023/11/04 11:15:31;;;;;;;;;;;;;;;20.70;46.57;99017.66;102293;1294;60463;-82
2023/11/04 11:18:00;;;;;;;;;;;;;;;20.70;46.49;98949.92;102578;1294;73463;-81
2023/11/04 11:20:33;;;;;;;;;;;;;;;20.70;46.72;98882.36;102496;1295;73427;-84
2023/11/04 11:23:01;;;;;;;;;;;;;;;20.70;46.63;98852.70;102566;1294;60642;-83
2023/11/04 11:25:36;;;;;;;;;;;;;;;20.70;46.57;98898.11;102497;1294;61189;-84
2023/11/04 11:28:14;;;;;;;;;;;;;;;20.70;46.54;98872.03;102614;1296;73222;-82
2023/11/04 11:30:40;;;;;;;;;;;;;;;20.70;46.67;98910.11;102519;1294;73819;-82
2023/11/04 11:33:07;;;;;;;;;;;;;;;20.70;46.67;98932.80;102479;1298;60957;-84
2023/11/04 11:35:53;;;;;;;;;;;;;;;20.70;46.68;98949.42;102575;1294;60856;-84
2023/11/04 11:38:19;;;;;;;;;;;;;;;20.70;46.62;98990.85;102583;1294;72449;-81
2023/11/04 11:40:48;;;;;;;;;;;;;;;20.70;46.56;98988.87;103032;1288;73900;-81
2023/11/04 11:43:16;;;;;;;;;;;;;;;20.70;46.74;98992.84;102988;1291;61786;-83
2023/11/04 11:45:41;;;;;;;;;;;;;;;20.70;46.69;99009.79;102980;1290;60847;-82
2023/11/04 11:48:07;;;;;;;;;;;;;;;20.70;46.67;99018.17;102998;1291;60593;-82
2023/11/04 11:50:38;;;;;;;;;;;;;;;20.70;46.67;99007.67;102747;1292;60678;-83
2023/11/04 11:53:04;;;;;;;;;;;;;;;20.70;46.63;98980.16;102984;1289;60443;-82
2023/11/04 11:55:32;;;;;;;;;;;;;;;20.69;46.75;98939.80;102784;1293;61068;-82
2023/11/04 11:57:58;;;;;;;;;;;;;;;20.70;46.71;98911.89;102707;1290;73377;-82
2023/11/04 12:00:23;;;;;;;;;;;;;;;20.70;46.76;98929.75;102721;1293;60624;-82
2023/11/04 12:02:51;;;;;;;;;;;;;;;20.69;46.70;98916.97;103029;1292;60598;-82
2023/11/04 12:05:17;;;;;;;;;;;;;;;20.69;46.81;98900.34;102730;1293;60591;-82
2023/11/04 12:07:42;;;;;;;;;;;;;;;20.69;46.63;98887.67;102945;1293;61249;-82
2023/11/04 12:10:08;;;;;;;;;;;;;;;20.69;46.78;98883.39;102822;1290;61161;-82
2023/11/04 12:12:35;;;;;;;;;;;;;;;20.69;46.65;98875.34;102760;1289;60618;-83
2023/11/04 12:15:00;;;;;;;;;;;;;;;20.69;46.69;98847.28;102763;1291;60595;-82
2023/11/04 12:17:27;;;;;;;;;;;;;;;20.68;46.74;98818.18;102756;1291;61776;-84
2023/11/04 12:19:52;;;;;;;;;;;;;;;20.68;46.70;98803.88;102709;1291;72459;-82
2023/11/04 12:22:18;;;;;;;;;;;;;;;20.68;46.75;98800.85;102730;1291;60697;-82
2023/11/04 12:24:43;;;;;;;;;;;;;;;20.68;46.86;98797.66;102919;1292;60595;-84
2023/11/04 12:27:09;;;;;;;;;;;;;;;20.68;46.68;98783.69;102761;1291;60596;-82
2023/11/04 12:29:38;;;;;;;;;;;;;;;20.68;46.73;98760.64;102998;1290;60630;-83
2023/11/04 12:32:04;;;;;;;;;;;;;;;20.68;46.71;98751.20;102736;1291;74564;-83
2023/11/04 12:34:30;;;;;;;;;;;;;;;20.68;46.77;98746.50;102953;1290;73538;-83